Date,TemperatureHighF,TemperatureAvgF,TemperatureLowF,DewpointHighF,DewpointAvgF,DewpointLowF,HumidityHigh,HumidityAvg,HumidityLow,PressureMaxIn,PressureMinIn,WindSpeedMaxMPH,WindSpeedAvgMPH,GustSpeedMaxMPH,PrecipitationSumIn
2013-1-1,49.7,46.8,43.6,48.3,41.0,28.5,97,81,51,30.10,29.93,7,1,7,0.25
2013-1-2,49.0,43.7,39.5,48.5,42.6,38.7,98,96,88,30.19,29.91,13,1,13,0.33
2013-1-3,45.7,39.4,27.9,38.9,36.3,26.9,97,89,68,30.26,30.15,6,1,6,0.00
2013-1-4,52.5,38.0,25.6,30.5,25.7,21.9,98,67,32,30.30,30.19,12,1,12,0.01
2013-1-5,51.1,38.1,26.7,33.0,26.5,22.1,85,65,38,30.40,30.26,6,1,6,0.00
2013-1-6,49.9,42.0,33.1,40.8,37.0,32.0,97,83,63,30.27,30.06,5,0,5,0.02
2013-1-7,55.9,37.5,26.8,37.2,31.5,26.0,98,82,45,30.44,30.17,12,1,12,0.00
2013-1-8,59.5,40.8,27.5,42.5,35.5,26.5,97,83,51,30.47,30.37,4,0,4,0.00
2013-1-9,69.3,50.4,34.5,51.5,44.1,33.6,98,81,52,30.44,30.34,6,1,6,0.00
2013-1-10,66.8,51.9,44.1,49.6,45.0,37.3,98,79,49,30.53,30.41,8,1,8,0.00
2013-1-11,52.8,48.4,42.2,52.3,43.9,32.5,98,86,56,30.44,30.14,7,1,7,0.35
2013-1-12,74.5,58.3,51.1,64.0,56.1,50.6,99,93,69,30.16,30.09,4,0,4,0.00
2013-1-13,76.5,62.8,54.3,63.8,58.5,53.7,99,87,61,30.14,30.04,10,1,10,0.01
2013-1-14,70.3,63.0,55.3,64.2,59.9,54.1,98,90,78,30.15,30.07,6,0,6,0.00
2013-1-15,61.1,47.1,44.7,60.5,45.9,43.8,98,96,93,30.23,30.05,16,3,16,0.02
2013-1-16,50.6,46.8,44.5,50.0,46.3,43.9,98,98,97,30.07,29.97,8,0,8,0.19
2013-1-17,51.2,46.4,32.7,50.7,45.7,31.7,98,97,93,30.13,29.89,22,4,22,1.23
2013-1-18,49.2,36.3,27.3,34.7,30.1,23.5,99,81,39,30.54,30.13,10,2,10,0.26
2013-1-19,57.2,37.2,23.7,32.6,28.8,23.0,98,76,32,30.51,30.16,8,1,8,0.00
2013-1-20,66.8,48.1,33.6,37.9,34.2,31.0,96,63,30,30.16,29.97,12,2,12,0.00
2013-1-21,62.2,44.2,26.9,36.0,29.0,17.5,97,61,29,30.08,29.86,12,2,12,0.00
2013-1-22,43.3,33.8,22.3,19.2,8.9,-2.0,59,37,17,30.30,29.95,13,2,13,0.00
2013-1-23,42.6,28.0,16.7,17.9,12.4,2.8,86,55,28,30.39,30.07,12,1,12,0.00
2013-1-24,37.6,31.0,21.5,27.3,16.5,7.1,79,56,28,30.53,29.96,20,3,20,0.00
2013-1-25,28.0,24.3,18.3,26.0,16.6,7.0,93,74,44,30.54,30.12,6,0,6,0.09
2013-1-26,40.7,30.9,25.0,34.3,28.2,24.0,96,90,70,30.41,30.10,9,0,9,0.03
2013-1-27,43.3,31.0,24.2,29.9,26.5,23.2,97,85,57,30.61,30.40,7,1,7,0.01
2013-1-28,53.6,42.0,29.7,49.1,36.6,27.4,92,82,65,30.52,30.22,8,1,8,0.01
2013-1-29,75.8,59.4,46.4,58.5,52.6,44.6,95,80,53,30.23,30.07,10,2,10,0.00
2013-1-30,74.1,66.9,56.0,65.5,62.3,54.2,97,86,73,30.07,29.38,28,6,28,0.02
2013-1-31,69.2,48.0,32.7,64.5,32.3,19.4,92,57,29,30.02,29.38,23,5,23,0.39
2013-2-1,41.9,35.4,23.8,29.3,15.2,2.3,78,46,23,30.40,29.89,18,3,18,0.00
2013-2-2,46.1,32.9,17.4,36.4,15.1,9.2,84,51,26,30.42,30.03,16,2,16,0.00
2013-2-3,51.4,42.6,32.9,36.9,30.8,24.2,90,65,42,30.03,29.85,12,2,12,0.00
2013-2-4,50.1,38.2,25.2,28.3,24.3,19.9,89,60,34,30.14,29.99,8,1,8,0.00
2013-2-5,64.7,46.6,36.3,36.7,33.4,27.5,89,63,33,30.02,29.86,12,2,12,0.00
2013-2-6,65.5,45.2,29.6,39.0,30.9,25.3,97,64,23,30.29,29.97,9,1,9,0.00
2013-2-7,49.7,42.4,35.8,42.9,37.9,33.5,96,85,69,30.33,29.98,10,3,10,0.36
2013-2-8,56.1,46.3,39.9,46.8,40.9,29.4,97,83,52,30.04,29.78,17,4,17,0.88
2013-2-9,54.7,40.3,27.5,29.9,24.5,18.3,88,57,25,30.36,30.03,12,2,12,0.00
2013-2-10,55.9,39.3,23.4,40.0,24.9,20.8,94,62,27,30.50,30.22,8,1,8,0.01
2013-2-11,63.6,55.8,44.4,60.2,53.0,39.7,98,90,82,30.22,29.91,12,2,12,0.05
2013-2-12,63.7,55.0,46.8,40.6,32.6,26.3,73,45,26,30.07,29.90,10,2,10,0.00
2013-2-13,48.9,46.4,43.9,47.2,44.1,36.8,97,92,68,29.95,29.62,12,1,12,0.34
2013-2-14,53.9,41.6,29.5,38.0,33.8,28.5,98,76,47,30.07,29.82,12,1,12,0.00
2013-2-15,65.0,43.3,27.8,44.6,33.9,27.1,98,75,31,30.10,29.93,12,1,12,0.01
2013-2-16,45.7,37.2,31.0,37.7,33.3,29.6,96,87,69,29.97,29.82,9,2,9,0.36
2013-2-17,39.4,30.2,22.7,29.6,16.1,7.6,95,59,28,30.29,29.92,15,3,15,0.06
2013-2-18,55.4,35.1,17.6,26.4,19.6,15.1,95,59,24,30.43,30.27,9,1,9,0.01
2013-2-19,54.4,43.4,30.8,51.0,39.1,25.5,96,85,64,30.27,29.85,16,2,16,0.11
2013-2-20,55.6,41.4,28.5,39.8,22.5,14.4,97,52,20,30.14,29.95,14,2,14,0.00
2013-2-21,57.7,40.9,24.1,26.4,20.9,16.8,88,49,22,30.27,30.11,10,2,10,0.00
2013-2-22,41.9,36.4,32.1,35.7,31.7,21.9,96,85,46,30.36,30.14,10,2,10,0.44
2013-2-23,44.0,40.3,36.1,43.2,39.4,35.1,97,97,96,30.14,29.81,6,1,6,1.15
2013-2-24,65.0,50.0,35.6,47.8,39.8,29.8,98,73,34,30.03,29.78,10,1,10,0.28
2013-2-25,43.1,37.4,32.9,33.3,26.0,22.3,91,64,47,30.23,30.03,14,3,14,0.00
2013-2-26,58.4,45.7,35.1,57.7,42.6,27.0,98,89,68,30.15,29.55,18,3,18,1.04
2013-2-27,63.2,49.7,38.6,46.2,41.1,36.7,98,75,42,29.78,29.61,13,2,13,0.00
2013-2-28,51.4,41.4,32.2,39.1,32.6,27.4,97,73,42,29.85,29.69,9,1,9,0.00
2013-3-1,50.6,40.5,27.3,32.7,29.2,25.4,96,66,43,29.91,29.83,9,1,9,0.00
2013-3-2,50.1,38.4,25.7,31.7,26.5,20.5,94,65,40,29.92,29.80,7,1,7,0.00
2013-3-3,48.7,36.9,28.1,23.7,20.8,17.0,71,53,35,29.98,29.83,13,2,13,0.00
2013-3-4,52.2,36.6,26.6,23.6,17.5,14.0,79,49,23,30.11,29.97,14,2,14,0.00
2013-3-5,52.2,41.9,28.9,44.3,35.4,22.9,96,79,44,30.09,29.57,8,1,8,0.32
2013-3-6,46.5,42.1,37.4,44.3,34.5,28.1,98,76,54,30.01,29.48,20,5,20,0.01
2013-3-7,52.9,43.0,34.2,33.3,30.2,26.5,81,62,44,30.22,30.00,14,3,14,0.00
2013-3-8,57.7,44.3,31.4,29.8,26.9,24.5,79,53,30,30.27,30.13,15,3,15,0.00
2013-3-9,66.2,46.6,32.1,33.5,29.8,26.1,87,56,24,30.33,30.23,12,2,12,0.00
2013-3-10,70.5,48.9,29.0,36.6,29.0,20.4,96,56,17,30.32,30.21,12,1,12,0.00
2013-3-11,71.0,55.0,36.2,53.4,44.2,28.5,92,68,48,30.25,29.95,14,3,14,0.00
2013-3-12,73.2,62.3,50.2,62.8,55.1,36.8,96,79,49,29.95,29.73,13,3,13,0.40
2013-3-13,59.0,47.7,33.3,37.1,28.8,20.1,90,51,27,30.12,29.92,14,3,14,0.00
2013-3-14,55.8,41.2,29.0,24.0,20.1,15.4,66,45,23,30.23,30.09,13,2,13,0.00
2013-3-15,64.5,46.8,25.6,35.7,28.1,20.5,92,52,30,30.18,29.90,13,2,13,0.00
2013-3-16,79.5,61.6,44.8,51.0,44.4,35.2,80,56,34,29.90,29.64,15,2,15,0.00
2013-3-17,59.4,52.1,41.1,52.9,45.4,37.9,94,79,64,30.18,29.81,18,4,18,0.00
2013-3-18,44.4,41.0,37.7,42.5,39.5,36.6,97,95,91,30.19,29.89,12,2,12,0.26
2013-3-19,69.8,55.4,41.7,48.6,34.1,10.9,98,54,18,30.01,29.82,12,3,12,0.01
2013-3-20,57.4,46.7,34.1,27.9,17.5,10.4,75,33,19,30.11,29.78,9,1,9,0.00
2013-3-21,48.7,40.1,31.8,32.3,21.3,11.0,80,49,28,29.97,29.71,14,3,14,0.00
2013-3-22,54.7,38.3,22.5,24.1,16.0,11.2,74,43,21,30.08,29.96,12,2,12,0.00
2013-3-23,42.5,40.9,38.8,32.7,27.4,22.6,74,59,46,30.02,29.98,0,0,0,0.00
2013-3-24,38.9,37.3,36.4,37.6,35.7,34.3,95,94,92,29.64,29.58,15,4,15,0.74
2013-3-25,49.7,41.3,36.0,38.4,31.2,23.7,96,71,40,29.80,29.54,20,3,20,0.00
2013-3-26,51.5,43.4,34.1,31.1,27.8,23.8,73,55,42,30.09,29.80,12,3,12,0.00
2013-3-27,55.0,43.6,32.3,28.5,25.4,21.3,80,51,29,30.22,30.09,14,3,14,0.00
2013-3-28,59.0,45.0,32.7,28.7,25.8,23.5,73,49,27,30.29,30.14,12,2,12,0.00
2013-3-29,61.4,45.3,27.4,34.1,27.9,25.1,92,56,26,30.33,30.17,9,1,9,0.00
2013-3-30,70.5,52.1,36.7,44.1,36.3,26.5,89,60,26,30.24,30.08,9,1,9,0.00
2013-3-31,69.6,56.5,48.1,58.3,50.9,42.5,97,82,63,30.10,29.80,12,2,12,0.47
2013-4-1,74.8,61.6,53.7,55.0,47.3,38.4,98,66,30,29.95,29.79,12,2,12,0.02
2013-4-2,63.2,50.4,35.7,38.5,29.4,24.0,82,48,24,30.15,29.95,12,2,12,0.00
2013-4-3,63.2,50.3,41.5,33.0,25.0,18.0,68,40,20,30.29,30.13,12,2,12,0.00
2013-4-4,51.0,42.9,39.5,40.7,33.8,24.8,96,72,46,30.36,29.91,15,4,15,1.09
2013-4-5,67.0,49.0,39.5,50.3,43.4,38.1,97,83,48,30.00,29.85,12,2,12,0.05
2013-4-6,68.2,52.8,37.7,42.2,34.3,26.0,98,55,25,30.28,30.01,13,3,13,0.00
2013-4-7,76.0,55.7,34.3,47.4,40.0,31.8,94,59,34,30.29,30.10,12,2,12,0.00
2013-4-8,82.6,65.4,49.3,58.7,52.7,47.1,97,67,38,30.17,30.04,12,2,12,0.00
2013-4-9,88.3,71.5,54.5,61.8,57.4,53.3,97,65,35,30.17,30.04,12,2,12,0.00
2013-4-10,89.5,74.1,57.0,64.0,59.9,55.3,96,65,36,30.09,29.93,13,2,13,0.00
2013-4-11,84.5,72.4,60.6,67.1,61.3,56.8,92,71,44,29.99,29.79,12,3,12,0.00
2013-4-12,83.3,73.0,66.2,70.9,64.5,50.6,96,76,50,29.82,29.60,16,3,16,0.48
2013-4-13,78.5,65.3,53.8,51.5,42.5,38.3,75,46,25,30.00,29.74,10,2,10,0.00
2013-4-14,84.0,65.8,44.8,55.2,46.5,38.3,98,57,22,30.10,30.00,8,1,8,0.00
2013-4-15,74.7,66.9,60.0,59.2,56.4,51.3,86,70,54,30.20,30.01,13,2,13,0.00
2013-4-16,82.2,64.9,54.6,63.0,58.3,53.8,98,82,45,30.30,30.19,5,1,5,0.00
2013-4-17,86.1,70.3,54.3,66.5,61.4,53.5,98,76,49,30.23,30.08,7,1,7,0.00
2013-4-18,83.2,70.5,58.8,64.6,60.7,57.1,96,73,47,30.19,30.03,12,2,12,0.00
2013-4-19,84.5,73.6,64.5,69.8,66.4,60.9,94,79,58,30.04,29.71,15,4,15,0.32
2013-4-20,67.3,56.0,45.1,45.1,38.5,33.1,90,55,30,30.26,29.95,12,2,12,0.11
2013-4-21,63.4,51.4,38.7,43.3,40.6,37.8,97,69,43,30.48,30.26,14,4,14,0.00
2013-4-22,61.7,49.3,36.0,46.1,40.0,33.4,91,72,47,30.49,30.26,16,5,16,0.00
2013-4-23,71.0,55.5,47.1,51.7,47.8,44.6,94,77,48,30.26,30.12,12,3,12,0.05
2013-4-24,81.0,63.3,45.2,58.5,53.1,44.4,98,73,41,30.15,29.96,12,2,12,0.00
2013-4-25,75.3,62.7,51.7,57.5,49.9,40.6,94,65,40,30.27,30.00,12,2,12,0.00
2013-4-26,77.0,60.3,47.1,53.4,44.0,35.1,97,63,24,30.41,30.27,10,1,10,0.00
2013-4-27,77.5,64.0,50.8,51.0,46.1,41.5,86,55,31,30.38,30.25,7,1,7,0.00
2013-4-28,64.3,58.9,54.1,57.0,50.5,43.6,96,74,58,30.26,30.10,5,1,5,0.53
2013-4-29,78.3,63.3,54.2,67.3,60.5,53.1,98,91,60,30.11,29.96,4,0,4,1.50
2013-4-30,67.8,62.0,56.5,62.2,59.2,54.8,98,91,76,30.16,29.99,9,2,9,0.35
2013-5-1,62.1,59.1,57.1,58.6,56.7,55.1,96,92,88,30.31,30.15,15,4,15,0.02
2013-5-2,64.1,59.6,54.4,58.0,56.0,51.3,95,88,79,30.33,30.25,13,3,13,0.00
2013-5-3,71.7,58.6,48.7,57.0,50.1,44.0,96,76,48,30.26,30.16,15,4,15,0.00
2013-5-4,66.0,58.4,49.7,54.2,50.7,46.6,90,76,63,30.18,30.07,18,6,18,0.00
2013-5-5,61.1,56.0,49.8,57.2,52.0,46.6,90,86,81,30.10,29.98,17,5,17,0.00
2013-5-6,69.9,61.6,56.5,66.2,59.8,55.1,98,94,86,30.00,29.81,12,3,12,1.95
2013-5-7,75.3,61.1,50.0,60.2,53.9,49.4,99,80,42,29.94,29.84,12,1,12,0.01
2013-5-8,75.9,62.2,50.5,60.5,55.8,49.4,98,82,55,30.01,29.91,8,1,8,0.20
2013-5-9,85.1,67.4,53.9,62.5,57.7,53.3,98,75,40,30.05,29.97,10,1,10,0.00
2013-5-10,89.8,73.1,55.0,64.8,60.3,54.1,98,68,38,30.05,29.93,10,1,10,0.00
2013-5-11,86.3,74.4,66.1,69.2,63.9,59.3,96,72,45,29.95,29.77,13,2,13,0.24
2013-5-12,76.0,67.2,55.5,64.8,52.1,37.3,96,62,32,30.01,29.77,13,2,13,0.01
2013-5-13,69.5,57.7,46.7,43.0,38.8,33.3,78,52,27,30.17,30.01,13,2,13,0.00
2013-5-14,74.3,57.9,39.3,47.2,40.4,31.9,96,58,25,30.25,30.08,9,1,9,0.00
2013-5-15,92.7,71.1,50.6,64.4,56.1,44.4,87,63,37,30.08,29.88,9,2,9,0.00
2013-5-16,88.5,76.2,60.9,65.8,61.2,56.0,95,63,35,29.96,29.88,9,1,9,0.00
2013-5-17,93.7,77.0,61.3,67.7,63.0,59.5,96,66,34,30.07,29.96,7,1,7,0.00
2013-5-18,82.8,72.2,63.7,71.4,66.6,62.2,96,83,64,30.13,30.06,8,1,8,0.33
2013-5-19,80.5,70.4,66.2,72.6,67.7,65.2,98,91,66,30.15,30.05,13,1,13,0.42
2013-5-20,78.2,70.1,67.0,73.0,68.7,66.1,98,96,80,30.11,30.02,6,0,6,0.82
2013-5-21,84.2,73.3,67.5,74.4,69.7,66.3,98,89,68,30.04,29.94,6,1,6,0.41
2013-5-22,88.8,75.3,67.6,72.5,68.8,66.5,97,82,52,30.02,29.90,7,1,7,0.06
2013-5-23,85.0,72.5,67.1,72.3,68.3,64.7,98,88,58,29.95,29.82,7,1,7,1.47
2013-5-24,72.5,65.5,52.8,67.2,54.2,38.1,98,70,35,30.17,29.79,17,3,17,0.01
2013-5-25,78.0,59.3,41.2,48.9,41.8,36.1,95,57,26,30.27,30.12,12,2,12,0.00
2013-5-26,78.3,61.5,46.4,52.8,46.5,40.2,94,63,31,30.27,30.16,10,1,10,0.00
2013-5-27,85.2,67.6,48.7,56.4,52.5,48.0,98,64,32,30.28,30.15,7,1,7,0.00
2013-5-28,88.0,73.3,57.2,68.7,62.0,53.4,93,69,50,30.25,30.13,9,1,9,0.00
2013-5-29,89.5,75.6,61.0,67.9,64.3,59.8,97,70,46,30.23,30.15,12,2,12,0.00
2013-5-30,92.4,77.2,61.7,68.9,64.9,60.5,97,69,41,30.26,30.16,8,1,8,0.00
2013-5-31,92.5,79.1,65.5,71.0,67.5,64.2,96,71,42,30.21,30.08,6,1,6,0.00
2013-6-1,91.5,79.2,66.3,71.3,67.9,65.0,97,71,45,30.14,30.01,9,2,9,0.00
2013-6-2,90.5,78.9,67.2,70.3,67.6,65.0,95,70,44,30.06,29.89,12,2,12,0.00
2013-6-3,84.3,74.4,67.0,76.2,71.1,66.1,97,90,72,29.95,29.82,10,1,10,0.87
2013-6-4,84.8,71.8,64.4,68.3,64.4,61.3,98,80,50,30.09,29.91,9,1,9,0.01
2013-6-5,86.3,73.7,61.8,64.0,60.7,52.6,96,67,38,30.14,30.00,9,2,9,0.00
2013-6-6,76.9,71.0,66.7,73.3,67.1,59.3,98,88,69,30.04,29.82,9,2,9,1.44
2013-6-7,78.8,71.7,68.8,76.4,70.6,68.2,99,96,89,29.85,29.42,14,2,14,3.57
2013-6-8,87.1,74.8,68.2,72.5,69.9,65.9,99,86,59,30.08,29.81,12,1,12,0.13
2013-6-9,92.0,78.1,66.2,75.2,70.9,65.6,99,81,53,30.15,30.04,9,1,9,0.33
2013-6-10,83.8,75.1,70.8,78.6,72.7,69.5,98,93,77,30.09,29.89,10,1,10,0.84
2013-6-11,88.1,77.4,69.2,71.6,68.1,64.8,97,76,48,29.95,29.87,9,2,9,0.00
2013-6-12,94.0,79.5,64.1,75.3,70.1,63.2,98,76,51,29.96,29.84,8,1,8,0.00
2013-6-13,98.2,81.4,68.8,78.5,72.1,61.7,96,77,39,29.85,29.57,23,2,23,0.14
2013-6-14,81.7,72.2,61.5,67.1,59.8,56.6,93,67,45,30.00,29.70,15,3,15,0.00
2013-6-15,89.0,73.3,57.5,64.9,61.3,56.8,98,70,39,30.11,30.00,6,1,6,0.00
2013-6-16,90.0,77.0,62.2,70.0,64.2,55.6,84,66,50,30.12,29.99,13,2,13,0.00
2013-6-17,90.5,78.8,70.1,74.3,69.3,64.5,86,74,54,30.03,29.91,7,1,7,0.00
2013-6-18,87.2,75.9,69.3,74.9,71.1,67.7,97,86,65,29.96,29.73,12,1,12,1.92
2013-6-19,81.8,73.3,65.8,69.9,67.3,65.2,98,83,62,30.11,29.85,10,2,10,0.00
2013-6-20,84.8,72.9,63.1,65.9,62.5,55.4,97,72,49,30.24,30.11,10,2,10,0.00
2013-6-21,86.1,72.0,56.6,68.2,60.3,53.3,94,69,41,30.25,30.17,9,2,9,0.00
2013-6-22,83.4,73.2,69.3,73.2,69.7,67.5,97,89,69,30.20,30.10,12,2,12,0.31
2013-6-23,88.0,76.9,68.2,76.5,72.0,67.5,98,86,63,30.20,30.11,5,0,5,0.05
2013-6-24,89.3,78.7,71.3,77.6,73.3,69.8,96,84,64,30.19,30.07,8,1,8,0.00
2013-6-25,91.3,77.4,70.0,78.5,71.9,68.2,96,84,61,30.12,29.99,10,1,10,0.15
2013-6-26,94.5,78.4,69.0,76.7,71.7,66.3,98,82,52,30.03,29.88,15,2,15,0.10
2013-6-27,93.2,77.6,67.5,79.5,72.3,66.5,98,85,56,29.90,29.70,8,1,8,0.04
2013-6-28,94.5,80.1,71.1,76.7,72.7,68.7,97,81,51,29.74,29.56,13,2,13,1.12
2013-6-29,88.9,77.2,68.6,76.1,72.3,68.0,98,86,62,29.73,29.59,5,1,5,0.74
2013-6-30,88.3,77.5,70.7,77.2,73.2,69.5,97,87,67,29.86,29.71,10,1,10,0.33
2013-7-1,84.5,76.1,70.6,76.9,72.9,69.7,98,90,72,29.99,29.83,9,1,9,0.78
2013-7-2,79.7,74.2,73.0,75.0,72.8,71.5,98,95,85,30.18,29.98,10,1,10,0.92
2013-7-3,87.8,77.9,72.8,78.5,74.8,72.0,98,91,71,30.24,30.15,10,1,10,0.35
2013-7-4,93.2,80.5,72.1,77.0,73.5,70.5,98,81,50,30.27,30.17,10,2,10,0.02
2013-7-5,93.3,81.1,70.9,77.2,73.7,70.0,98,80,54,30.27,30.15,7,1,7,0.00
2013-7-6,91.9,80.7,71.9,76.6,73.3,70.1,97,80,56,30.24,30.11,6,1,6,0.00
2013-7-7,93.3,80.4,68.3,77.6,72.7,67.5,98,79,53,30.18,30.05,9,1,9,0.00
2013-7-8,88.4,79.3,71.8,78.7,74.3,71.2,98,86,68,30.15,30.07,7,1,7,0.51
2013-7-9,91.2,77.7,70.9,79.3,74.2,70.2,99,90,65,30.15,30.06,10,1,10,0.07
2013-7-10,91.2,79.9,73.2,78.9,74.8,71.3,98,86,65,30.10,29.94,10,1,10,0.00
2013-7-11,87.0,76.9,72.7,76.7,73.3,71.7,98,89,69,29.98,29.87,7,1,7,0.27
2013-7-12,78.5,73.8,71.2,73.7,71.5,69.8,99,93,84,30.02,29.86,6,1,6,0.11
2013-7-13,82.1,74.9,70.6,77.3,72.7,69.3,97,93,82,30.17,30.00,10,2,10,0.21
2013-7-14,92.0,79.5,70.3,76.6,73.4,69.7,98,83,56,30.28,30.18,10,2,10,0.02
2013-7-15,93.6,79.9,69.2,76.7,72.4,68.6,99,81,51,30.31,30.24,8,1,8,0.01
2013-7-16,98.3,87.8,73.2,78.5,74.5,71.7,98,67,45,30.26,30.15,5,1,5,0.00
2013-7-17,96.5,84.7,74.1,78.7,74.8,71.2,97,75,47,30.20,30.08,9,1,9,0.00
2013-7-18,97.1,84.4,74.3,79.8,75.8,72.6,97,77,46,30.13,30.01,6,0,6,0.00
2013-7-19,94.3,83.6,74.3,79.2,75.3,71.3,97,78,55,30.08,29.96,8,1,8,0.00
2013-7-20,91.8,81.9,75.5,77.6,74.3,72.6,91,79,59,30.02,29.90,8,2,8,0.00
2013-7-21,92.3,79.8,73.2,78.2,73.8,70.7,94,83,60,29.98,29.88,7,1,7,0.00
2013-7-22,92.0,80.2,71.7,77.3,74.2,70.8,98,83,60,29.94,29.80,8,1,8,0.00
2013-7-23,94.2,82.4,74.0,75.1,73.3,71.6,94,76,51,29.84,29.70,9,2,9,0.00
2013-7-24,96.5,80.0,69.6,77.5,72.1,67.0,99,80,46,29.85,29.71,26,1,26,1.99
2013-7-25,82.2,72.9,69.4,72.2,69.8,68.4,99,91,69,29.93,29.80,12,2,12,0.03
2013-7-26,88.3,76.9,61.6,69.7,66.0,61.3,99,71,47,30.10,30.02,7,1,6,0.00
2013-7-27,90.5,75.3,65.5,73.9,69.5,64.8,99,84,54,30.05,29.93,6,1,6,0.20
2013-7-28,90.4,78.2,69.8,76.4,72.8,69.3,99,85,60,29.99,29.91,8,1,8,0.01
2013-7-29,90.2,78.4,70.3,74.2,70.7,65.9,97,78,53,30.13,29.97,9,1,9,0.00
2013-7-30,90.5,76.6,62.8,71.9,67.5,61.6,97,76,45,30.21,30.12,9,1,9,0.00
2013-7-31,85.7,76.8,71.6,75.8,72.4,69.7,97,87,68,30.13,29.99,6,1,6,0.15
2013-8-1,88.1,76.2,69.4,76.9,72.0,68.8,99,88,66,30.01,29.84,13,1,13,0.46
2013-8-2,92.3,78.8,68.0,75.1,71.7,67.4,98,81,52,30.00,29.89,5,1,5,0.18
2013-8-3,92.7,79.1,71.0,78.7,74.0,70.2,98,86,56,30.00,29.88,8,1,8,0.15
2013-8-4,87.1,75.7,66.3,74.3,68.3,62.8,99,80,47,30.02,29.87,12,2,12,0.01
2013-8-5,87.8,74.7,62.1,69.0,64.5,58.6,98,74,44,30.08,29.99,9,1,9,0.00
2013-8-6,88.1,75.5,67.8,71.8,67.9,64.3,96,79,54,30.05,29.99,7,1,7,0.07
2013-8-7,91.0,77.9,67.0,72.9,69.6,65.7,97,78,49,30.09,30.01,8,1,8,0.00
2013-8-8,93.6,81.3,69.8,75.0,72.0,68.8,97,76,49,30.05,29.98,6,1,6,0.00
2013-8-9,95.7,83.2,73.4,78.5,74.9,72.0,98,78,53,30.03,29.95,12,2,12,0.00
2013-8-10,97.3,82.3,73.7,79.6,75.5,72.7,97,82,52,30.08,29.97,13,1,13,0.17
2013-8-11,96.5,81.9,71.6,78.0,74.5,71.0,99,81,51,30.09,29.98,6,1,6,0.00
2013-8-12,77.6,77.6,77.5,75.7,75.6,75.2,94,94,93,30.02,30.02,0,0,0,0.00
2013-8-17,72.8,69.2,65.0,71.9,67.6,61.8,98,95,88,30.16,30.09,8,2,8,0.00
2013-8-18,86.6,75.2,68.7,73.3,70.0,66.2,99,85,60,30.19,30.10,7,2,7,0.00
2013-8-19,75.1,70.1,66.6,71.9,68.4,65.5,98,94,86,30.19,30.08,4,0,4,0.00
2013-8-20,86.1,75.8,68.0,75.0,71.7,67.7,99,88,68,30.18,30.09,5,0,5,0.00
2013-8-21,92.3,77.7,71.2,77.6,73.1,69.5,98,87,59,30.21,30.09,10,1,10,0.00
2013-8-22,93.9,80.1,68.8,75.5,71.5,67.9,98,78,46,30.14,29.97,8,1,8,0.00
2013-8-23,91.3,79.1,69.1,75.0,71.3,68.2,98,79,53,30.04,29.90,12,2,12,0.00
2013-8-24,84.7,73.4,64.8,68.1,63.0,59.0,93,72,45,30.29,30.04,15,4,15,0.00
2013-8-25,82.6,69.7,60.5,65.1,60.7,55.6,98,76,41,30.39,30.27,12,2,12,0.00
2013-8-26,88.2,70.1,54.2,64.3,59.3,53.6,99,73,39,30.31,30.10,6,1,6,0.00
2013-8-27,94.3,75.3,59.3,72.2,66.2,57.6,97,76,43,30.11,29.94,4,1,4,0.00
2013-8-28,85.8,77.6,68.9,76.1,72.8,68.3,98,86,67,29.97,29.85,6,0,6,0.00
2013-8-29,89.8,80.4,72.2,75.3,73.2,69.7,93,79,60,30.00,29.81,12,2,12,0.00
2013-8-30,92.5,76.7,65.4,71.0,67.7,64.5,98,77,43,30.06,29.92,5,1,5,0.00
2013-8-31,92.0,77.9,66.0,74.4,70.3,65.4,99,80,52,29.97,29.85,8,1,8,0.00
2013-9-1,93.1,79.6,71.3,81.3,74.0,69.8,98,84,60,29.89,29.76,13,2,13,0.05
2013-9-2,92.9,81.7,69.4,78.9,74.8,69.1,99,81,58,29.87,29.78,6,1,6,0.00
2013-9-3,90.5,78.0,71.3,78.0,73.8,70.3,99,88,61,29.92,29.78,6,1,6,0.00
2013-9-4,88.8,76.6,68.7,73.7,70.8,68.1,99,84,58,30.07,29.92,13,1,13,0.00
2013-9-5,91.8,76.9,65.4,73.2,66.9,58.8,99,75,35,30.08,30.00,7,1,7,0.00
2013-9-6,85.1,72.8,63.5,68.0,62.7,58.3,97,73,44,30.16,30.06,9,2,9,0.00
2013-9-7,88.7,71.4,57.7,66.8,62.6,57.1,98,77,44,30.12,29.96,5,1,5,0.00
2013-9-8,90.0,74.5,61.8,70.0,65.0,60.9,98,76,40,29.98,29.89,7,1,7,0.00
2013-9-9,91.3,76.8,64.5,71.8,68.6,63.9,99,79,50,30.14,29.98,8,1,8,0.00
2013-9-10,93.8,78.3,66.0,74.0,69.4,65.3,98,77,44,30.22,30.13,6,1,6,0.00
2013-9-11,77.1,73.2,66.5,70.6,69.2,65.8,98,87,80,30.19,30.16,4,1,4,0.00
2013-9-12,93.5,81.6,68.5,74.9,70.9,67.3,96,72,52,30.19,29.78,9,2,9,0.00
2013-9-13,87.8,76.3,65.7,70.2,64.8,56.8,94,70,44,29.86,29.73,10,1,10,0.00
2013-9-14,80.2,66.8,57.5,59.7,53.6,47.6,91,65,40,30.13,29.86,14,3,14,0.00
2013-9-15,83.2,67.3,51.9,62.6,57.6,50.9,97,74,44,30.23,30.11,7,1,7,0.00
2013-9-16,88.7,73.7,64.0,73.8,65.2,60.8,98,77,41,30.18,30.02,13,2,13,0.02
2013-9-17,78.8,67.3,58.5,61.3,56.2,52.3,90,70,43,30.31,30.18,16,3,16,0.00
2013-9-18,75.4,61.0,49.9,56.5,52.7,48.7,97,77,46,30.30,30.17,9,1,9,0.00
2013-9-19,80.2,65.5,52.8,62.6,57.5,51.9,98,78,47,30.19,30.08,5,0,5,0.00
2013-9-20,72.4,67.1,62.7,66.9,64.0,60.6,97,90,82,30.10,29.96,6,0,6,0.22
2013-9-21,79.0,70.7,65.1,71.8,68.1,64.2,98,92,78,29.96,29.72,6,1,6,0.38
2013-9-22,80.2,68.4,59.2,69.1,62.0,56.8,98,82,51,29.89,29.69,20,3,20,4.37
2013-9-23,75.5,62.5,53.9,57.7,54.4,50.4,97,77,51,30.07,29.89,12,2,12,0.00
2013-9-24,80.2,62.6,51.1,63.0,56.7,50.6,98,83,52,30.10,29.94,2,0,2,0.00
2013-9-25,76.5,62.9,51.3,62.7,57.3,50.8,99,84,57,29.96,29.86,6,1,6,0.01
2013-9-27,75.3,65.0,54.8,62.1,57.5,53.3,98,78,55,30.18,30.06,14,3,14,0.00
2013-9-28,74.5,62.7,51.8,59.0,55.2,50.3,98,79,57,30.25,30.15,13,3,13,0.01
2013-9-29,76.3,63.3,51.8,59.4,55.8,51.3,98,79,50,30.16,30.02,10,2,10,0.01
2013-9-30,78.1,62.2,52.2,61.8,56.1,51.6,99,83,45,30.09,29.99,8,1,8,0.01
2013-10-1,86.3,65.0,50.4,64.7,57.8,49.8,99,81,43,30.12,30.01,5,0,5,0.01
2013-10-2,89.3,69.7,55.8,66.3,60.8,55.2,99,78,40,30.12,30.03,7,1,7,0.00
2013-10-3,88.8,70.7,57.4,68.1,63.1,56.8,99,80,46,30.12,30.04,6,0,6,0.00
2013-10-4,90.0,72.6,61.6,69.2,64.8,61.0,98,80,46,30.12,30.03,6,0,6,0.00
2013-10-5,92.8,74.3,60.7,71.8,65.6,60.1,99,78,42,30.10,30.01,6,0,6,0.00
2013-10-6,87.0,72.6,63.1,74.4,68.6,62.2,98,88,63,30.06,29.94,12,1,12,0.15
2013-10-7,75.8,71.4,66.4,73.6,69.7,60.7,98,94,82,29.97,29.85,13,1,13,0.69
2013-10-8,66.4,60.2,57.9,61.0,52.1,47.8,87,75,64,30.18,29.96,16,5,16,0.00
2013-10-9,62.9,58.6,55.1,57.7,54.1,51.1,96,85,77,30.16,30.05,17,5,17,0.16
2013-10-10,59.6,56.5,53.0,58.6,55.4,51.8,97,96,93,30.05,29.92,12,3,12,0.93
2013-10-11,66.9,62.0,59.1,62.2,59.8,57.8,97,93,84,29.96,29.89,8,1,8,0.00
2013-10-12,69.0,64.8,60.5,65.5,62.5,59.5,97,92,86,30.06,29.94,7,1,7,0.00
2013-10-13,68.1,64.7,62.6,65.3,63.0,61.1,98,94,88,30.18,30.06,12,3,12,0.04
2013-10-14,66.9,62.8,57.3,63.2,60.8,56.1,98,93,85,30.23,30.16,14,3,14,0.13
2013-10-15,71.6,62.1,51.9,63.3,58.5,51.4,99,88,73,30.18,30.05,10,2,10,0.02
2013-10-16,71.3,65.5,61.3,64.8,62.4,60.5,98,90,76,30.05,29.95,4,0,4,0.00
2013-10-17,77.3,67.6,58.5,67.4,63.3,58.1,99,87,68,29.96,29.83,8,1,8,0.00
2013-10-18,70.8,63.6,57.5,64.9,55.7,48.8,97,77,54,30.03,29.87,9,1,9,0.00
2013-10-19,70.7,64.0,60.7,66.3,61.5,57.1,97,92,85,29.98,29.81,6,0,6,0.01
2013-10-20,70.3,55.8,43.7,59.3,47.7,42.4,98,77,40,30.12,29.89,12,2,12,0.01
2013-10-21,72.3,52.3,37.5,52.8,45.9,37.0,99,82,42,30.17,30.01,4,0,4,0.00
2013-10-22,65.0,56.7,49.6,59.4,54.6,48.8,98,93,80,30.01,29.80,2,0,2,0.00
2013-10-23,68.8,59.2,48.1,59.4,49.3,35.0,99,73,37,29.99,29.68,12,2,12,0.01
2013-10-24,61.4,47.7,35.2,40.2,35.8,33.1,94,66,38,30.16,29.99,9,2,9,0.00
2013-10-25,58.6,47.9,36.9,39.0,33.0,29.1,89,59,35,30.33,30.16,14,2,14,0.00
2013-10-26,61.9,47.0,28.0,40.9,34.9,27.3,98,67,34,30.33,30.07,9,1,9,0.00
2013-10-27,71.3,52.9,40.5,46.8,42.6,38.3,95,72,38,30.13,30.03,6,1,6,0.00
2013-10-28,70.5,54.5,41.5,57.5,50.0,40.5,98,86,59,30.26,30.12,5,0,5,0.00
2013-10-29,73.3,57.9,46.7,58.9,53.2,46.1,98,86,57,30.33,30.24,4,0,4,0.00
2013-10-30,73.5,60.8,50.8,61.2,56.6,50.0,99,87,62,30.30,30.15,5,0,5,0.00
2013-10-31,76.2,63.9,53.1,63.9,57.9,52.6,99,82,56,30.19,29.93,10,1,10,0.00
2013-11-1,74.8,68.7,62.9,68.8,65.7,61.8,98,90,74,29.93,29.68,15,2,15,1.15
2013-11-2,73.5,62.2,55.0,62.0,53.0,41.9,98,75,42,29.92,29.68,9,1,9,0.00
2013-11-3,64.8,50.8,40.1,42.5,40.0,37.5,95,69,40,30.36,29.92,12,2,12,0.00
2013-11-4,56.6,44.1,34.7,38.7,34.6,32.1,94,72,41,30.55,30.36,13,2,13,0.00
2013-11-5,58.6,48.4,37.8,50.4,42.9,33.8,92,82,67,30.53,30.42,8,2,8,0.00
2013-11-6,74.3,57.6,46.2,58.6,52.4,44.9,98,85,56,30.42,30.11,7,1,7,0.00
2013-11-7,70.4,60.9,45.3,63.1,54.7,33.8,98,82,54,30.11,29.90,9,2,9,0.12
2013-11-8,59.7,45.2,33.1,34.6,31.5,27.6,93,62,31,30.33,30.09,12,1,12,0.00
2013-11-9,61.2,43.9,29.3,40.8,34.1,28.6,98,73,32,30.38,30.18,9,1,9,0.00
2013-11-10,74.3,52.6,36.0,43.9,37.8,29.5,98,64,27,30.23,30.05,12,1,12,0.00
2013-11-11,64.1,44.9,31.8,37.5,32.6,29.7,95,66,31,30.35,30.14,9,1,9,0.00
2013-11-12,61.9,42.0,32.5,44.0,33.3,19.3,98,75,40,30.41,30.05,22,3,22,0.02
2013-11-13,47.2,34.3,25.5,23.6,19.9,16.6,90,58,31,30.53,30.41,13,2,13,0.00
2013-11-14,60.1,37.6,22.3,30.8,25.0,21.1,97,68,26,30.48,30.34,8,1,8,0.00
2013-11-15,65.8,45.6,26.5,50.0,38.0,24.4,94,77,43,30.36,30.21,4,0,4,0.00
2013-11-16,69.6,56.3,49.2,60.2,53.4,47.4,98,91,72,30.27,30.20,7,1,7,0.01
2013-11-17,73.0,61.8,52.1,66.2,58.4,51.1,98,90,67,30.22,29.90,6,1,6,0.11
2013-11-18,78.3,66.7,55.1,67.3,54.5,32.1,98,68,39,29.94,29.78,10,2,10,0.06
2013-11-19,58.7,49.2,41.6,33.1,30.4,28.4,68,49,34,30.32,29.94,13,3,13,0.00
2013-11-20,53.6,44.6,37.8,39.9,33.8,28.9,85,66,52,30.44,30.32,16,4,16,0.00
2013-11-21,65.0,50.3,41.1,50.8,44.1,37.6,93,80,60,30.50,30.38,9,2,9,0.00
2013-11-22,73.5,59.7,46.7,61.6,55.0,45.3,96,85,66,30.39,30.08,12,1,12,0.03
2013-11-23,62.2,55.8,42.0,60.8,45.2,23.3,98,70,38,30.16,30.02,9,1,9,0.04
2013-11-24,41.7,35.0,30.2,25.0,15.4,6.2,55,45,30,30.46,30.16,14,4,14,0.00
2013-11-25,46.4,33.8,18.2,20.8,13.7,7.5,87,47,22,30.61,30.39,13,1,7,0.00
2013-11-26,38.4,36.7,35.2,23.7,21.7,18.7,58,54,51,30.40,30.24,7,1,7,0.00
2013-12-4,68.3,57.6,50.5,58.5,53.9,46.6,97,88,71,30.10,29.99,7,0,7,0.00
2013-12-5,67.7,60.6,50.8,63.8,58.9,50.0,98,95,85,30.14,30.04,7,0,7,0.02
2013-12-6,79.8,70.2,63.9,66.0,64.0,61.9,94,82,61,30.08,29.97,17,3,17,0.00
2013-12-7,68.7,49.5,41.6,65.6,45.0,32.6,100,85,68,30.46,29.99,17,5,17,0.25
2013-12-8,42.4,35.9,33.5,33.7,32.4,26.8,97,88,68,30.46,30.30,13,3,13,0.19
2013-12-9,46.3,40.5,34.4,45.8,39.9,33.6,98,98,97,30.29,30.06,4,0,4,0.31
2013-12-10,48.0,43.1,28.2,46.6,41.6,26.7,98,94,83,30.33,29.92,12,1,12,0.76
2013-12-11,51.7,34.2,23.2,32.3,28.0,22.5,98,81,38,30.46,30.29,6,1,6,0.01
2013-12-12,29.1,26.8,24.6,28.0,26.0,23.8,97,97,96,30.35,30.27,0,0,0,0.00
2013-12-13,45.1,22.4,20.8,22.0,20.3,19.7,97,93,36,30.39,30.36,2,0,5,0.00
2013-12-14,44.3,44.1,43.9,42.1,41.9,41.7,92,92,92,29.91,29.89,1,1,8,0.10
2013-12-15,55.4,46.4,35.5,45.0,35.4,28.4,98,66,51,30.08,29.75,10,2,10,0.03
2013-12-16,57.2,39.0,27.0,36.8,31.8,25.9,97,79,43,30.19,30.07,7,1,7,0.00
2013-12-17,64.1,46.0,30.1,41.7,36.1,29.4,98,72,40,30.13,29.88,12,2,12,0.00
2013-12-18,51.2,39.4,27.3,39.2,25.9,19.6,90,61,30,30.30,30.03,10,2,10,0.00
2013-12-19,65.5,42.6,25.0,34.1,27.5,23.3,95,62,24,30.33,30.22,12,1,12,0.00
2013-12-20,68.7,52.8,38.6,56.0,45.2,32.8,92,76,58,30.25,30.11,10,1,10,0.00
2013-12-21,74.7,60.1,45.4,65.8,56.1,44.3,98,87,66,30.16,30.05,12,1,12,0.00
2013-12-22,79.2,70.8,63.2,68.2,65.4,62.0,96,84,63,30.10,30.02,17,3,17,0.08
2013-12-23,67.6,65.0,63.9,67.3,64.3,62.9,99,98,96,30.06,30.00,12,0,12,1.65
2013-12-24,64.9,55.9,29.6,64.3,51.1,15.3,98,85,51,30.46,30.05,12,1,12,0.00
2013-12-25,42.2,33.1,22.9,16.9,15.1,11.8,74,49,32,30.56,30.45,8,2,8,0.00
2013-12-26,50.2,33.5,28.1,33.4,27.9,14.9,96,82,37,30.45,30.26,4,0,2,0.05
2013-12-27,51.3,40.1,23.8,32.9,29.0,23.1,98,69,42,30.47,30.36,5,0,5,0.00
2013-12-28,61.9,51.2,44.7,39.4,32.9,27.0,80,51,28,30.40,30.16,5,0,5,0.01
2013-12-29,64.5,50.5,43.7,64.2,48.8,38.6,99,94,79,30.17,29.66,12,1,12,1.97
2013-12-30,55.3,44.7,34.1,48.2,40.1,33.6,99,85,61,30.14,29.92,4,0,4,0.01
2013-12-31,51.4,42.0,30.9,37.8,32.1,24.1,92,70,37,30.35,30.11,9,1,9,0.00
2014-1-1,52.3,38.7,29.6,35.1,29.6,25.3,96,74,35,30.43,30.15,7,0,7,0.00
2014-1-2,48.5,41.6,37.5,44.2,37.4,34.6,91,85,74,30.15,29.73,4,0,4,0.00